AXM6303 WMKL-WMKK
Flight info
| Callsign | AXM6303 |
|---|---|
| Flight time | 0h 52m |
| Altitude | 31000 |
| Route | ISTEL DCT RINBA Y507 KAKAK KAKAK1G |
| Aircraft | A320/M-SDE3FGHIRWY/LB1 |
Departure
| Time | 2026-05-07 03:20 |
|---|---|
| Airport | Langkawi International Airport (WMKL) |
Arrival
| Time | 2026-05-07 04:12 |
|---|---|
| Airport | Kuala Lumpur International Airport (WMKK) |
| Time | Latitude | Longitude | Altitude | Speed | Heading |
|---|---|---|---|---|---|
| 2026-05-07 02:26 | 6.34125 | 99.73280 | 35 ft | 0 kts | 303° |
| 2026-05-07 03:10 | 6.34117 | 99.73292 | 34 ft | 4 kts | 308° |
| 2026-05-07 03:11 | 6.34099 | 99.73311 | 36 ft | 4 kts | 325° |
| 2026-05-07 03:11 | 6.34076 | 99.73321 | 36 ft | 4 kts | 9° |
| 2026-05-07 03:11 | 6.34064 | 99.73317 | 36 ft | 1 kts | 34° |
| 2026-05-07 03:11 | 6.34062 | 99.73316 | 36 ft | 0 kts | 34° |
| 2026-05-07 03:15 | 6.34071 | 99.73322 | 36 ft | 4 kts | 34° |
| 2026-05-07 03:15 | 6.34094 | 99.73337 | 36 ft | 3 kts | 35° |
| 2026-05-07 03:15 | 6.34107 | 99.73361 | 34 ft | 4 kts | 85° |
| 2026-05-07 03:16 | 6.34089 | 99.73415 | 36 ft | 13 kts | 87° |
| 2026-05-07 03:16 | 6.34148 | 99.73472 | 36 ft | 11 kts | 32° |
| 2026-05-07 03:16 | 6.34207 | 99.73510 | 35 ft | 9 kts | 32° |
| 2026-05-07 03:16 | 6.34257 | 99.73543 | 36 ft | 8 kts | 34° |
| 2026-05-07 03:17 | 6.34329 | 99.73593 | 36 ft | 17 kts | 34° |
| 2026-05-07 03:17 | 6.34426 | 99.73664 | 35 ft | 18 kts | 45° |
| 2026-05-07 03:17 | 6.34444 | 99.73749 | 38 ft | 0 kts | 112° |
| 2026-05-07 03:18 | 6.34430 | 99.73772 | 36 ft | 7 kts | 127° |
| 2026-05-07 03:19 | 6.34366 | 99.73801 | 39 ft | 10 kts | 180° |
| 2026-05-07 03:19 | 6.34306 | 99.73775 | 38 ft | 9 kts | 215° |
| 2026-05-07 03:19 | 6.34301 | 99.73771 | 38 ft | 0 kts | 215° |
| 2026-05-07 03:19 | 6.34187 | 99.73692 | 38 ft | 57 kts | 214° |
| 2026-05-07 03:20 | 6.33662 | 99.73334 | 35 ft | 122 kts | 214° |
| 2026-05-07 03:20 | 6.32818 | 99.72756 | 37 ft | 170 kts | 214° |
| 2026-05-07 03:20 | 6.31758 | 99.72046 | 367 ft | 191 kts | 213° |
| 2026-05-07 03:20 | 6.30626 | 99.71304 | 1055 ft | 194 kts | 213° |
| 2026-05-07 03:21 | 6.29358 | 99.70819 | 1664 ft | 205 kts | 180° |
| 2026-05-07 03:21 | 6.27978 | 99.71311 | 1925 ft | 226 kts | 138° |
| 2026-05-07 03:21 | 6.26945 | 99.72613 | 2258 ft | 251 kts | 121° |
| 2026-05-07 03:21 | 6.26075 | 99.74207 | 2862 ft | 266 kts | 117° |
| 2026-05-07 03:22 | 6.25230 | 99.75882 | 3716 ft | 270 kts | 117° |
| 2026-05-07 03:22 | 6.24354 | 99.77562 | 4558 ft | 274 kts | 118° |
| 2026-05-07 03:22 | 6.23424 | 99.79246 | 5389 ft | 277 kts | 120° |
| 2026-05-07 03:22 | 6.22447 | 99.80926 | 6238 ft | 280 kts | 121° |
| 2026-05-07 03:23 | 6.21432 | 99.82613 | 7059 ft | 283 kts | 121° |
| 2026-05-07 03:23 | 6.20391 | 99.84303 | 7844 ft | 287 kts | 122° |
| 2026-05-07 03:23 | 6.19326 | 99.86013 | 8626 ft | 290 kts | 122° |
| 2026-05-07 03:23 | 6.18246 | 99.87738 | 9389 ft | 293 kts | 122° |
| 2026-05-07 03:24 | 6.17153 | 99.89482 | 10117 ft | 297 kts | 122° |
| 2026-05-07 03:24 | 6.16016 | 99.91300 | 10391 ft | 319 kts | 122° |
| 2026-05-07 03:24 | 6.14794 | 99.93257 | 10641 ft | 339 kts | 121° |
| 2026-05-07 03:24 | 6.13529 | 99.95286 | 11221 ft | 345 kts | 121° |
| 2026-05-07 03:25 | 6.12249 | 99.97343 | 11913 ft | 349 kts | 121° |
| 2026-05-07 03:25 | 6.10937 | 99.99406 | 12601 ft | 352 kts | 125° |
| 2026-05-07 03:25 | 6.09317 | 100.01274 | 13259 ft | 356 kts | 134° |
| 2026-05-07 03:25 | 6.07567 | 100.03052 | 13899 ft | 360 kts | 134° |
| 2026-05-07 03:26 | 6.05797 | 100.04852 | 14500 ft | 363 kts | 134° |
| 2026-05-07 03:26 | 6.04017 | 100.06668 | 15100 ft | 367 kts | 134° |
| 2026-05-07 03:26 | 6.02223 | 100.08500 | 15688 ft | 370 kts | 134° |
| 2026-05-07 03:26 | 6.00409 | 100.10352 | 16239 ft | 373 kts | 134° |
| 2026-05-07 03:27 | 5.98579 | 100.12222 | 16793 ft | 377 kts | 134° |
| 2026-05-07 03:27 | 5.96736 | 100.14110 | 17329 ft | 380 kts | 133° |
| 2026-05-07 03:27 | 5.94877 | 100.16017 | 17852 ft | 383 kts | 133° |
| 2026-05-07 03:27 | 5.93005 | 100.17934 | 18359 ft | 386 kts | 134° |
| 2026-05-07 03:28 | 5.91110 | 100.19867 | 18855 ft | 389 kts | 134° |
| 2026-05-07 03:28 | 5.89204 | 100.21811 | 19321 ft | 392 kts | 134° |
| 2026-05-07 03:28 | 5.87280 | 100.23772 | 19797 ft | 395 kts | 134° |
| 2026-05-07 03:28 | 5.85343 | 100.25746 | 20252 ft | 398 kts | 134° |
| 2026-05-07 03:29 | 5.83392 | 100.27734 | 20687 ft | 401 kts | 134° |
| 2026-05-07 03:29 | 5.81427 | 100.29737 | 21113 ft | 404 kts | 134° |
| 2026-05-07 03:29 | 5.79454 | 100.31751 | 21533 ft | 406 kts | 134° |
| 2026-05-07 03:29 | 5.77493 | 100.33755 | 21955 ft | 409 kts | 134° |
| 2026-05-07 03:30 | 5.75493 | 100.35797 | 22348 ft | 412 kts | 134° |
| 2026-05-07 03:30 | 5.73477 | 100.37856 | 22728 ft | 414 kts | 134° |
| 2026-05-07 03:30 | 5.71452 | 100.39927 | 23102 ft | 417 kts | 134° |
| 2026-05-07 03:30 | 5.69415 | 100.42010 | 23473 ft | 419 kts | 134° |
| 2026-05-07 03:31 | 5.67362 | 100.44106 | 23825 ft | 422 kts | 134° |
| 2026-05-07 03:31 | 5.65300 | 100.46209 | 24173 ft | 424 kts | 134° |
| 2026-05-07 03:31 | 5.63224 | 100.48323 | 24515 ft | 426 kts | 134° |
| 2026-05-07 03:31 | 5.61134 | 100.50453 | 24845 ft | 429 kts | 134° |
| 2026-05-07 03:32 | 5.59037 | 100.52590 | 25178 ft | 431 kts | 134° |
| 2026-05-07 03:32 | 5.56927 | 100.54737 | 25510 ft | 433 kts | 134° |
| 2026-05-07 03:32 | 5.54809 | 100.56894 | 25835 ft | 435 kts | 134° |
| 2026-05-07 03:32 | 5.52683 | 100.59063 | 26132 ft | 438 kts | 134° |
| 2026-05-07 03:33 | 5.50540 | 100.61247 | 26432 ft | 440 kts | 134° |
| 2026-05-07 03:33 | 5.48385 | 100.63442 | 26718 ft | 442 kts | 134° |
| 2026-05-07 03:33 | 5.46225 | 100.65643 | 27005 ft | 444 kts | 134° |
| 2026-05-07 03:33 | 5.44057 | 100.67850 | 27297 ft | 446 kts | 134° |
| 2026-05-07 03:34 | 5.41872 | 100.70077 | 27583 ft | 448 kts | 134° |
| 2026-05-07 03:34 | 5.39590 | 100.72201 | 27851 ft | 450 kts | 141° |
| 2026-05-07 03:34 | 5.36967 | 100.73935 | 28119 ft | 452 kts | 151° |
| 2026-05-07 03:34 | 5.34085 | 100.75198 | 28384 ft | 455 kts | 161° |
| 2026-05-07 03:35 | 5.31001 | 100.75955 | 28649 ft | 457 kts | 171° |
| 2026-05-07 03:35 | 5.27845 | 100.76448 | 28893 ft | 459 kts | 171° |
| 2026-05-07 03:35 | 5.24688 | 100.76944 | 29140 ft | 461 kts | 171° |
| 2026-05-07 03:35 | 5.21505 | 100.77445 | 29382 ft | 463 kts | 171° |
| 2026-05-07 03:36 | 5.18325 | 100.77945 | 29622 ft | 465 kts | 171° |
| 2026-05-07 03:36 | 5.15122 | 100.78452 | 29853 ft | 466 kts | 171° |
| 2026-05-07 03:36 | 5.11908 | 100.78962 | 30082 ft | 468 kts | 171° |
| 2026-05-07 03:36 | 5.08688 | 100.79474 | 30316 ft | 469 kts | 171° |
| 2026-05-07 03:37 | 5.05463 | 100.79986 | 30568 ft | 470 kts | 171° |
| 2026-05-07 03:37 | 5.02233 | 100.80497 | 30791 ft | 471 kts | 171° |
| 2026-05-07 03:37 | 4.98985 | 100.81009 | 30877 ft | 467 kts | 171° |
| 2026-05-07 03:37 | 4.95840 | 100.81502 | 30898 ft | 454 kts | 171° |
| 2026-05-07 03:38 | 4.92730 | 100.81988 | 30896 ft | 449 kts | 171° |
| 2026-05-07 03:38 | 4.86577 | 100.82962 | 30896 ft | 447 kts | 171° |
| 2026-05-07 03:39 | 4.80438 | 100.83934 | 30882 ft | 447 kts | 171° |
| 2026-05-07 03:39 | 4.74296 | 100.84904 | 30893 ft | 447 kts | 171° |
| 2026-05-07 03:40 | 4.68159 | 100.85875 | 30883 ft | 447 kts | 171° |
| 2026-05-07 03:40 | 4.62027 | 100.86847 | 30883 ft | 446 kts | 171° |
| 2026-05-07 03:41 | 4.55886 | 100.87812 | 30880 ft | 446 kts | 171° |
| 2026-05-07 03:41 | 4.50796 | 100.88617 | 30873 ft | 446 kts | 171° |
| 2026-05-07 03:42 | 4.44761 | 100.90010 | 30870 ft | 445 kts | 158° |
| 2026-05-07 03:42 | 4.39172 | 100.92675 | 30869 ft | 445 kts | 154° |
| 2026-05-07 03:43 | 4.33607 | 100.95388 | 30867 ft | 445 kts | 154° |
| 2026-05-07 03:43 | 4.28038 | 100.98093 | 30868 ft | 445 kts | 154° |
| 2026-05-07 03:44 | 4.22473 | 101.00803 | 30867 ft | 445 kts | 154° |
| 2026-05-07 03:44 | 4.16912 | 101.03511 | 30860 ft | 445 kts | 154° |
| 2026-05-07 03:45 | 4.11379 | 101.06206 | 30860 ft | 444 kts | 154° |
| 2026-05-07 03:45 | 4.05781 | 101.08926 | 30864 ft | 445 kts | 154° |
| 2026-05-07 03:46 | 4.00223 | 101.11635 | 30860 ft | 444 kts | 153° |
| 2026-05-07 03:46 | 3.94669 | 101.14351 | 30608 ft | 445 kts | 153° |
| 2026-05-07 03:46 | 3.91913 | 101.15691 | 29947 ft | 445 kts | 154° |
| 2026-05-07 03:47 | 3.89132 | 101.17037 | 29376 ft | 442 kts | 154° |
| 2026-05-07 03:47 | 3.86382 | 101.18369 | 28801 ft | 438 kts | 154° |
| 2026-05-07 03:47 | 3.83647 | 101.19697 | 28228 ft | 435 kts | 153° |
| 2026-05-07 03:47 | 3.80942 | 101.21012 | 27663 ft | 431 kts | 153° |
| 2026-05-07 03:48 | 3.78198 | 101.22200 | 27118 ft | 428 kts | 161° |
| 2026-05-07 03:48 | 3.75317 | 101.22882 | 26639 ft | 423 kts | 172° |
| 2026-05-07 03:48 | 3.72406 | 101.23038 | 26363 ft | 418 kts | 179° |
| 2026-05-07 03:48 | 3.69502 | 101.23073 | 26027 ft | 416 kts | 178° |
| 2026-05-07 03:49 | 3.66613 | 101.23113 | 25712 ft | 414 kts | 178° |
| 2026-05-07 03:49 | 3.63749 | 101.23159 | 25393 ft | 412 kts | 178° |
| 2026-05-07 03:49 | 3.60889 | 101.23205 | 25073 ft | 410 kts | 178° |
| 2026-05-07 03:49 | 3.58052 | 101.23249 | 24758 ft | 408 kts | 178° |
| 2026-05-07 03:50 | 3.55217 | 101.23293 | 24445 ft | 406 kts | 178° |
| 2026-05-07 03:50 | 3.52406 | 101.23334 | 24121 ft | 404 kts | 178° |
| 2026-05-07 03:50 | 3.49598 | 101.23375 | 23814 ft | 402 kts | 178° |
| 2026-05-07 03:50 | 3.46804 | 101.23414 | 23496 ft | 400 kts | 178° |
| 2026-05-07 03:51 | 3.44031 | 101.23453 | 23183 ft | 398 kts | 178° |
| 2026-05-07 03:51 | 3.41264 | 101.23496 | 22874 ft | 396 kts | 178° |
| 2026-05-07 03:51 | 3.38510 | 101.23539 | 22566 ft | 395 kts | 178° |
| 2026-05-07 03:51 | 3.35775 | 101.23582 | 22260 ft | 393 kts | 178° |
| 2026-05-07 03:52 | 3.33048 | 101.23621 | 21954 ft | 391 kts | 178° |
| 2026-05-07 03:52 | 3.30334 | 101.23660 | 21653 ft | 389 kts | 178° |
| 2026-05-07 03:52 | 3.27635 | 101.23700 | 21356 ft | 387 kts | 178° |
| 2026-05-07 03:52 | 3.24955 | 101.23740 | 21048 ft | 385 kts | 178° |
| 2026-05-07 03:53 | 3.22282 | 101.23781 | 20724 ft | 384 kts | 177° |
| 2026-05-07 03:53 | 3.19661 | 101.24171 | 19777 ft | 381 kts | 160° |
| 2026-05-07 03:53 | 3.17261 | 101.25268 | 18775 ft | 378 kts | 152° |
| 2026-05-07 03:53 | 3.14944 | 101.26462 | 18146 ft | 369 kts | 152° |
| 2026-05-07 03:54 | 3.12679 | 101.27621 | 17680 ft | 363 kts | 152° |
| 2026-05-07 03:54 | 3.10444 | 101.28758 | 17208 ft | 360 kts | 152° |
| 2026-05-07 03:54 | 3.08218 | 101.29892 | 16757 ft | 359 kts | 152° |
| 2026-05-07 03:54 | 3.06004 | 101.31020 | 16299 ft | 357 kts | 152° |
| 2026-05-07 03:55 | 3.03794 | 101.32147 | 15836 ft | 355 kts | 152° |
| 2026-05-07 03:55 | 3.01600 | 101.33262 | 15383 ft | 353 kts | 152° |
| 2026-05-07 03:55 | 2.99409 | 101.34373 | 14938 ft | 352 kts | 152° |
| 2026-05-07 03:55 | 2.97230 | 101.35482 | 14482 ft | 350 kts | 152° |
| 2026-05-07 03:56 | 2.95069 | 101.36584 | 14032 ft | 349 kts | 152° |
| 2026-05-07 03:56 | 2.92912 | 101.37687 | 13588 ft | 347 kts | 152° |
| 2026-05-07 03:56 | 2.90792 | 101.38772 | 13129 ft | 346 kts | 152° |
| 2026-05-07 03:56 | 2.88631 | 101.39877 | 12662 ft | 344 kts | 152° |
| 2026-05-07 03:57 | 2.86531 | 101.40949 | 12213 ft | 342 kts | 152° |
| 2026-05-07 03:57 | 2.84416 | 101.42026 | 11750 ft | 340 kts | 152° |
| 2026-05-07 03:57 | 2.82306 | 101.43097 | 11288 ft | 339 kts | 152° |
| 2026-05-07 03:57 | 2.80215 | 101.44160 | 10822 ft | 337 kts | 152° |
| 2026-05-07 03:58 | 2.78128 | 101.45223 | 10371 ft | 335 kts | 152° |
| 2026-05-07 03:58 | 2.76076 | 101.46270 | 10143 ft | 325 kts | 152° |
| 2026-05-07 03:58 | 2.74210 | 101.47439 | 10076 ft | 311 kts | 138° |
| 2026-05-07 03:58 | 2.72670 | 101.48905 | 9909 ft | 301 kts | 135° |
| 2026-05-07 03:59 | 2.71177 | 101.50350 | 9782 ft | 297 kts | 135° |
| 2026-05-07 03:59 | 2.69699 | 101.51784 | 9659 ft | 296 kts | 135° |
| 2026-05-07 03:59 | 2.68221 | 101.53219 | 9538 ft | 296 kts | 135° |
| 2026-05-07 03:59 | 2.66752 | 101.54650 | 9386 ft | 295 kts | 135° |
| 2026-05-07 04:00 | 2.65282 | 101.56084 | 9027 ft | 295 kts | 135° |
| 2026-05-07 04:00 | 2.63816 | 101.57514 | 8626 ft | 293 kts | 135° |
| 2026-05-07 04:00 | 2.62362 | 101.58933 | 8231 ft | 292 kts | 135° |
| 2026-05-07 04:00 | 2.60911 | 101.60349 | 7826 ft | 290 kts | 135° |
| 2026-05-07 04:01 | 2.59468 | 101.61757 | 7428 ft | 289 kts | 135° |
| 2026-05-07 04:01 | 2.58034 | 101.63153 | 7031 ft | 287 kts | 135° |
| 2026-05-07 04:01 | 2.56609 | 101.64541 | 6652 ft | 285 kts | 135° |
| 2026-05-07 04:01 | 2.55192 | 101.65922 | 6258 ft | 283 kts | 135° |
| 2026-05-07 04:02 | 2.53791 | 101.67290 | 5880 ft | 281 kts | 135° |
| 2026-05-07 04:02 | 2.52398 | 101.68649 | 5488 ft | 278 kts | 135° |
| 2026-05-07 04:02 | 2.51022 | 101.69993 | 5103 ft | 276 kts | 135° |
| 2026-05-07 04:02 | 2.49651 | 101.71331 | 4726 ft | 274 kts | 135° |
| 2026-05-07 04:03 | 2.48291 | 101.72657 | 4509 ft | 272 kts | 135° |
| 2026-05-07 04:03 | 2.46936 | 101.73975 | 4510 ft | 273 kts | 135° |
| 2026-05-07 04:03 | 2.45574 | 101.75302 | 4511 ft | 273 kts | 135° |
| 2026-05-07 04:03 | 2.44241 | 101.76599 | 4508 ft | 259 kts | 135° |
| 2026-05-07 04:04 | 2.43054 | 101.77883 | 4337 ft | 249 kts | 123° |
| 2026-05-07 04:04 | 2.42411 | 101.79515 | 3658 ft | 259 kts | 97° |
| 2026-05-07 04:04 | 2.42541 | 101.81328 | 2948 ft | 268 kts | 72° |
| 2026-05-07 04:04 | 2.43427 | 101.82946 | 2589 ft | 258 kts | 54° |
| 2026-05-07 04:05 | 2.44455 | 101.84306 | 2515 ft | 233 kts | 43° |
| 2026-05-07 04:05 | 2.45758 | 101.85105 | 2510 ft | 213 kts | 17° |
| 2026-05-07 04:05 | 2.47168 | 101.85230 | 2543 ft | 196 kts | 351° |
| 2026-05-07 04:05 | 2.48390 | 101.84796 | 2521 ft | 179 kts | 327° |
| 2026-05-07 04:06 | 2.49381 | 101.84133 | 2504 ft | 165 kts | 326° |
| 2026-05-07 04:06 | 2.50320 | 101.83507 | 2506 ft | 159 kts | 326° |
| 2026-05-07 04:06 | 2.51238 | 101.82899 | 2508 ft | 157 kts | 326° |
| 2026-05-07 04:06 | 2.52148 | 101.82294 | 2507 ft | 157 kts | 326° |
| 2026-05-07 04:07 | 2.53056 | 101.81691 | 2508 ft | 157 kts | 326° |
| 2026-05-07 04:07 | 2.53953 | 101.81094 | 2508 ft | 157 kts | 327° |
| 2026-05-07 04:07 | 2.54873 | 101.80484 | 2506 ft | 156 kts | 327° |
| 2026-05-07 04:07 | 2.55767 | 101.79892 | 2513 ft | 156 kts | 327° |
| 2026-05-07 04:08 | 2.56682 | 101.79283 | 2515 ft | 156 kts | 327° |
| 2026-05-07 04:08 | 2.57583 | 101.78684 | 2505 ft | 156 kts | 327° |
| 2026-05-07 04:08 | 2.58472 | 101.78091 | 2509 ft | 156 kts | 327° |
| 2026-05-07 04:08 | 2.59373 | 101.77490 | 2516 ft | 156 kts | 327° |
| 2026-05-07 04:09 | 2.60278 | 101.76871 | 2470 ft | 159 kts | 325° |
| 2026-05-07 04:09 | 2.61189 | 101.76237 | 2290 ft | 159 kts | 326° |
| 2026-05-07 04:09 | 2.62091 | 101.75623 | 2099 ft | 156 kts | 326° |
| 2026-05-07 04:09 | 2.62983 | 101.75021 | 1887 ft | 154 kts | 326° |
| 2026-05-07 04:10 | 2.63865 | 101.74427 | 1698 ft | 153 kts | 326° |
| 2026-05-07 04:10 | 2.64748 | 101.73835 | 1478 ft | 152 kts | 326° |
| 2026-05-07 04:10 | 2.65624 | 101.73247 | 1291 ft | 151 kts | 326° |
| 2026-05-07 04:10 | 2.66495 | 101.72662 | 1091 ft | 151 kts | 327° |
| 2026-05-07 04:11 | 2.67375 | 101.72072 | 897 ft | 150 kts | 326° |
| 2026-05-07 04:11 | 2.68236 | 101.71485 | 662 ft | 148 kts | 326° |
| 2026-05-07 04:11 | 2.69098 | 101.70920 | 513 ft | 150 kts | 328° |
| 2026-05-07 04:11 | 2.69963 | 101.70341 | 300 ft | 150 kts | 327° |
| 2026-05-07 04:12 | 2.70820 | 101.69765 | 106 ft | 148 kts | 326° |
| 2026-05-07 04:12 | 2.71620 | 101.69228 | 39 ft | 118 kts | 326° |
| 2026-05-07 04:12 | 2.72157 | 101.68869 | 37 ft | 71 kts | 326° |
| 2026-05-07 04:12 | 2.72440 | 101.68681 | 35 ft | 37 kts | 331° |
| 2026-05-07 04:13 | 2.72631 | 101.68630 | 37 ft | 19 kts | 354° |
| 2026-05-07 04:13 | 2.72767 | 101.68614 | 38 ft | 21 kts | 352° |
| 2026-05-07 04:13 | 2.72907 | 101.68570 | 37 ft | 21 kts | 326° |
| 2026-05-07 04:13 | 2.73035 | 101.68485 | 38 ft | 23 kts | 326° |
| 2026-05-07 04:14 | 2.73173 | 101.68393 | 38 ft | 25 kts | 326° |
| 2026-05-07 04:14 | 2.73323 | 101.68292 | 37 ft | 27 kts | 326° |
| 2026-05-07 04:14 | 2.73482 | 101.68184 | 36 ft | 28 kts | 326° |
| 2026-05-07 04:14 | 2.73609 | 101.68100 | 37 ft | 13 kts | 328° |
| 2026-05-07 04:15 | 2.73685 | 101.68127 | 39 ft | 13 kts | 54° |
| 2026-05-07 04:15 | 2.73733 | 101.68198 | 41 ft | 11 kts | 55° |
| 2026-05-07 04:15 | 2.73775 | 101.68258 | 42 ft | 11 kts | 56° |
| 2026-05-07 04:15 | 2.73821 | 101.68327 | 40 ft | 12 kts | 56° |
| 2026-05-07 04:16 | 2.73865 | 101.68392 | 41 ft | 11 kts | 56° |
| 2026-05-07 04:16 | 2.73905 | 101.68453 | 40 ft | 11 kts | 57° |
| 2026-05-07 04:16 | 2.73946 | 101.68515 | 42 ft | 7 kts | 57° |
| 2026-05-07 04:16 | 2.73974 | 101.68526 | 42 ft | 4 kts | 347° |
| 2026-05-07 04:17 | 2.73998 | 101.68512 | 42 ft | 4 kts | 323° |
| 2026-05-07 04:17 | 2.74018 | 101.68497 | 42 ft | 3 kts | 325° |
| 2026-05-07 04:17 | 2.74036 | 101.68485 | 42 ft | 3 kts | 326° |
| 2026-05-07 04:17 | 2.74039 | 101.68483 | 42 ft | 0 kts | 326° |